Pagrindinis puslapis
METAR-TAF:

METAR-TAF

Oro uostai :

Kiutahija, Turkija

platuma: 39-06-41N, ilguma: 30-07-48E, Aukštis: 1013 m

METAR: trūkstamas

Laikas: 15:13 (12:13 UTC)

Prognozė

Ataskaita buvo paskelbta 1 valandą ir 33 minutes, ne 10:40 UTC
Prognozė galioja nuo 30 metu 12 UTC su 30 metu 21 UTC
Vėjas 15 kt iš Pietų/Pietvakarių su gūsio iki 25 kt
Matomumas 10 km arba daugiau
Su prošvaistėmis ne aukštis 3500 ft
lietus

TAF: LTBZ 301040Z 3012/3021 21015G25KT 9999 -SHRA BKN035

Orai ataskaitas ir orų prognozės (METAR, TAF).

turimą stotys yra geltonos ir raudonos taškus žemėlapyje.

Perkelti pele per norėdami pamatyti stoties vardą.

Tada spustelėkite, norėdami matyti oro stebėjimo ir prognozės.

Norėdami pakeisti žemėlapį: spustelėkite ant žalios mygtukų su juodo kryžiaus žemyn,; žalią mygtuką su brūkšneliu, jei norite nutolinti; arba žalių rodyklių gretimoms žemėlapius.


METAR-TAF: